sensor_id;sensor_type;location;lat;lon;timestamp;temperature;humidity
24374;DHT22;12498;50.880;12.096;2023-10-08T00:01:34;18.50;1.00
24374;DHT22;12498;50.880;12.096;2023-10-08T00:04:00;18.50;1.00
24374;DHT22;12498;50.880;12.096;2023-10-08T00:06:29;18.50;1.00
24374;DHT22;12498;50.880;12.096;2023-10-08T00:08:55;18.50;1.00
24374;DHT22;12498;50.880;12.096;2023-10-08T00:11:25;18.50;1.00
24374;DHT22;12498;50.880;12.096;2023-10-08T00:13:51;18.40;1.00
24374;DHT22;12498;50.880;12.096;2023-10-08T00:16:21;18.40;1.00
24374;DHT22;12498;50.880;12.096;2023-10-08T00:18:47;18.40;1.00
24374;DHT22;12498;50.880;12.096;2023-10-08T00:21:16;18.40;1.00
24374;DHT22;12498;50.880;12.096;2023-10-08T00:23:42;18.40;1.00
24374;DHT22;12498;50.880;12.096;2023-10-08T00:26:14;18.30;1.00
24374;DHT22;12498;50.880;12.096;2023-10-08T00:28:44;18.20;1.00
24374;DHT22;12498;50.880;12.096;2023-10-08T00:31:14;18.30;1.00
24374;DHT22;12498;50.880;12.096;2023-10-08T00:33:42;18.30;1.00
24374;DHT22;12498;50.880;12.096;2023-10-08T00:36:10;18.30;5.40
24374;DHT22;12498;50.880;12.096;2023-10-08T00:38:48;18.30;21.00
24374;DHT22;12498;50.880;12.096;2023-10-08T00:41:16;18.30;20.30
24374;DHT22;12498;50.880;12.096;2023-10-08T00:43:47;18.30;27.80
24374;DHT22;12498;50.880;12.096;2023-10-08T00:48:56;18.30;45.80
24374;DHT22;12498;50.880;12.096;2023-10-08T00:51:22;18.30;63.20
24374;DHT22;12498;50.880;12.096;2023-10-08T00:56:15;18.30;86.20
24374;DHT22;12498;50.880;12.096;2023-10-08T00:58:44;18.30;99.90
24374;DHT22;12498;50.880;12.096;2023-10-08T01:01:14;18.30;99.90
24374;DHT22;12498;50.880;12.096;2023-10-08T01:03:42;18.30;99.90
24374;DHT22;12498;50.880;12.096;2023-10-08T01:06:13;18.20;99.90
24374;DHT22;12498;50.880;12.096;2023-10-08T01:08:40;18.30;99.90
24374;DHT22;12498;50.880;12.096;2023-10-08T01:11:21;18.30;99.90
24374;DHT22;12498;50.880;12.096;2023-10-08T01:14:07;18.30;99.90
24374;DHT22;12498;50.880;12.096;2023-10-08T01:16:35;18.30;99.90
24374;DHT22;12498;50.880;12.096;2023-10-08T01:19:01;18.30;99.90
24374;DHT22;12498;50.880;12.096;2023-10-08T01:21:31;18.30;99.90
24374;DHT22;12498;50.880;12.096;2023-10-08T01:24:02;18.30;99.90
24374;DHT22;12498;50.880;12.096;2023-10-08T01:26:31;18.20;99.90
24374;DHT22;12498;50.880;12.096;2023-10-08T01:28:58;18.20;99.90
24374;DHT22;12498;50.880;12.096;2023-10-08T01:31:28;18.20;99.90
24374;DHT22;12498;50.880;12.096;2023-10-08T01:33:53;18.20;99.90
24374;DHT22;12498;50.880;12.096;2023-10-08T01:36:22;18.20;99.90
24374;DHT22;12498;50.880;12.096;2023-10-08T01:38:49;18.10;99.90
24374;DHT22;12498;50.880;12.096;2023-10-08T01:41:14;18.20;99.90
24374;DHT22;12498;50.880;12.096;2023-10-08T01:43:54;18.20;99.90
24374;DHT22;12498;50.880;12.096;2023-10-08T01:46:20;18.10;99.90
24374;DHT22;12498;50.880;12.096;2023-10-08T01:48:47;18.10;99.90
24374;DHT22;12498;50.880;12.096;2023-10-08T01:51:18;18.10;1.00
24374;DHT22;12498;50.880;12.096;2023-10-08T01:53:53;18.10;1.00
24374;DHT22;12498;50.880;12.096;2023-10-08T01:56:23;18.10;1.00
24374;DHT22;12498;50.880;12.096;2023-10-08T01:58:49;18.10;1.00
24374;DHT22;12498;50.880;12.096;2023-10-08T02:01:19;18.10;1.00
24374;DHT22;12498;50.880;12.096;2023-10-08T02:06:10;18.10;1.00
24374;DHT22;12498;50.880;12.096;2023-10-08T02:08:37;18.10;11.50
24374;DHT22;12498;50.880;12.096;2023-10-08T02:11:03;18.10;36.60
24374;DHT22;12498;50.880;12.096;2023-10-08T02:13:29;18.10;59.40
24374;DHT22;12498;50.880;12.096;2023-10-08T02:15:55;18.10;93.40
24374;DHT22;12498;50.880;12.096;2023-10-08T02:18:21;18.10;99.90
24374;DHT22;12498;50.880;12.096;2023-10-08T02:20:51;18.10;99.90
24374;DHT22;12498;50.880;12.096;2023-10-08T02:23:16;18.10;99.90
24374;DHT22;12498;50.880;12.096;2023-10-08T02:25:43;18.00;99.90
24374;DHT22;12498;50.880;12.096;2023-10-08T02:28:10;18.00;99.90
24374;DHT22;12498;50.880;12.096;2023-10-08T02:30:38;18.00;99.90
24374;DHT22;12498;50.880;12.096;2023-10-08T02:33:07;18.00;99.90
24374;DHT22;12498;50.880;12.096;2023-10-08T02:35:40;18.00;1.00
24374;DHT22;12498;50.880;12.096;2023-10-08T02:38:06;18.00;1.00
24374;DHT22;12498;50.880;12.096;2023-10-08T02:40:31;18.00;1.00
24374;DHT22;12498;50.880;12.096;2023-10-08T02:42:57;18.00;1.00
24374;DHT22;12498;50.880;12.096;2023-10-08T02:45:26;18.00;5.00
24374;DHT22;12498;50.880;12.096;2023-10-08T02:47:52;18.00;58.50
24374;DHT22;12498;50.880;12.096;2023-10-08T02:50:18;18.00;57.20
24374;DHT22;12498;50.880;12.096;2023-10-08T02:52:44;18.00;99.90
24374;DHT22;12498;50.880;12.096;2023-10-08T02:55:12;18.00;99.90
24374;DHT22;12498;50.880;12.096;2023-10-08T02:57:53;18.00;99.90
24374;DHT22;12498;50.880;12.096;2023-10-08T03:00:19;18.00;99.90
24374;DHT22;12498;50.880;12.096;2023-10-08T03:02:46;18.00;99.90
24374;DHT22;12498;50.880;12.096;2023-10-08T03:05:11;18.00;1.00
24374;DHT22;12498;50.880;12.096;2023-10-08T03:07:38;17.90;1.00
24374;DHT22;12498;50.880;12.096;2023-10-08T03:10:05;17.90;1.40
24374;DHT22;12498;50.880;12.096;2023-10-08T03:12:32;17.90;3.50
24374;DHT22;12498;50.880;12.096;2023-10-08T03:14:58;17.90;99.90
24374;DHT22;12498;50.880;12.096;2023-10-08T03:17:37;17.90;99.90
24374;DHT22;12498;50.880;12.096;2023-10-08T03:20:16;16.70;1.00
24374;DHT22;12498;50.880;12.096;2023-10-08T03:23:11;15.60;1.00
24374;DHT22;12498;50.880;12.096;2023-10-08T03:25:41;15.50;1.00
24374;DHT22;12498;50.880;12.096;2023-10-08T03:28:10;15.00;24.00
24374;DHT22;12498;50.880;12.096;2023-10-08T03:30:41;14.90;34.50
24374;DHT22;12498;50.880;12.096;2023-10-08T03:33:18;14.50;56.40
24374;DHT22;12498;50.880;12.096;2023-10-08T03:35:49;14.50;72.20
24374;DHT22;12498;50.880;12.096;2023-10-08T03:38:18;14.40;91.10
24374;DHT22;12498;50.880;12.096;2023-10-08T03:40:56;14.40;89.60
24374;DHT22;12498;50.880;12.096;2023-10-08T03:43:45;14.00;99.90
24374;DHT22;12498;50.880;12.096;2023-10-08T03:46:29;13.60;99.90
24374;DHT22;12498;50.880;12.096;2023-10-08T03:48:55;13.80;99.90
24374;DHT22;12498;50.880;12.096;2023-10-08T03:51:23;13.50;99.90
24374;DHT22;12498;50.880;12.096;2023-10-08T03:53:52;13.60;99.90
24374;DHT22;12498;50.880;12.096;2023-10-08T03:56:41;13.50;99.90
24374;DHT22;12498;50.880;12.096;2023-10-08T03:59:17;13.70;99.90
24374;DHT22;12498;50.880;12.096;2023-10-08T04:09:57;13.60;99.90
24374;DHT22;12498;50.880;12.096;2023-10-08T04:12:52;13.50;99.90
24374;DHT22;12498;50.880;12.096;2023-10-08T04:17:45;13.60;99.90
24374;DHT22;12498;50.880;12.096;2023-10-08T04:25:28;13.60;99.90
24374;DHT22;12498;50.880;12.096;2023-10-08T04:27:56;13.40;99.90
24374;DHT22;12498;50.880;12.096;2023-10-08T04:33:05;13.30;99.90
24374;DHT22;12498;50.880;12.096;2023-10-08T04:35:36;13.60;99.90
24374;DHT22;12498;50.880;12.096;2023-10-08T04:38:03;13.80;99.90
24374;DHT22;12498;50.880;12.096;2023-10-08T04:40:29;13.40;99.90
24374;DHT22;12498;50.880;12.096;2023-10-08T04:42:58;13.50;99.90
24374;DHT22;12498;50.880;12.096;2023-10-08T04:45:27;13.40;99.90
24374;DHT22;12498;50.880;12.096;2023-10-08T04:47:59;13.60;99.90
24374;DHT22;12498;50.880;12.096;2023-10-08T04:50:24;13.50;99.90
24374;DHT22;12498;50.880;12.096;2023-10-08T04:52:55;13.50;99.90
24374;DHT22;12498;50.880;12.096;2023-10-08T05:00:20;13.20;99.90
24374;DHT22;12498;50.880;12.096;2023-10-08T05:03:05;13.30;99.90
24374;DHT22;12498;50.880;12.096;2023-10-08T05:05:39;13.20;99.90
24374;DHT22;12498;50.880;12.096;2023-10-08T05:08:21;13.30;99.90
24374;DHT22;12498;50.880;12.096;2023-10-08T05:11:10;13.00;99.90
24374;DHT22;12498;50.880;12.096;2023-10-08T05:13:50;13.80;99.90
24374;DHT22;12498;50.880;12.096;2023-10-08T05:16:26;14.30;99.90
24374;DHT22;12498;50.880;12.096;2023-10-08T05:19:02;12.90;99.90
24374;DHT22;12498;50.880;12.096;2023-10-08T05:21:54;13.00;99.90
24374;DHT22;12498;50.880;12.096;2023-10-08T05:24:31;12.80;99.90
24374;DHT22;12498;50.880;12.096;2023-10-08T05:27:04;12.90;99.90
24374;DHT22;12498;50.880;12.096;2023-10-08T05:29:48;12.70;99.90
24374;DHT22;12498;50.880;12.096;2023-10-08T05:32:32;12.70;99.90
24374;DHT22;12498;50.880;12.096;2023-10-08T05:35:11;13.80;99.90
24374;DHT22;12498;50.880;12.096;2023-10-08T05:37:57;12.70;99.90
24374;DHT22;12498;50.880;12.096;2023-10-08T05:40:38;12.90;99.90
24374;DHT22;12498;50.880;12.096;2023-10-08T05:43:30;12.90;99.90
24374;DHT22;12498;50.880;12.096;2023-10-08T05:48:57;12.80;99.90
24374;DHT22;12498;50.880;12.096;2023-10-08T05:51:34;12.90;99.90
24374;DHT22;12498;50.880;12.096;2023-10-08T05:54:29;12.90;99.90
24374;DHT22;12498;50.880;12.096;2023-10-08T05:56:56;13.00;99.90
24374;DHT22;12498;50.880;12.096;2023-10-08T06:02:21;12.70;99.90
24374;DHT22;12498;50.880;12.096;2023-10-08T06:05:00;12.80;99.90
24374;DHT22;12498;50.880;12.096;2023-10-08T06:07:38;12.70;99.90
24374;DHT22;12498;50.880;12.096;2023-10-08T06:10:33;12.70;99.90
24374;DHT22;12498;50.880;12.096;2023-10-08T06:18:35;12.60;99.90
24374;DHT22;12498;50.880;12.096;2023-10-08T06:25:53;12.60;99.90
24374;DHT22;12498;50.880;12.096;2023-10-08T06:30:53;12.40;99.90
24374;DHT22;12498;50.880;12.096;2023-10-08T06:33:19;12.50;99.90
24374;DHT22;12498;50.880;12.096;2023-10-08T06:38:30;12.30;99.90
24374;DHT22;12498;50.880;12.096;2023-10-08T06:40:59;12.40;99.90
24374;DHT22;12498;50.880;12.096;2023-10-08T06:48:44;12.10;99.90
24374;DHT22;12498;50.880;12.096;2023-10-08T06:51:11;12.10;99.90
24374;DHT22;12498;50.880;12.096;2023-10-08T06:53:40;12.20;99.90
24374;DHT22;12498;50.880;12.096;2023-10-08T06:56:05;12.20;99.90
24374;DHT22;12498;50.880;12.096;2023-10-08T06:58:32;12.20;99.90
24374;DHT22;12498;50.880;12.096;2023-10-08T07:00:57;12.50;99.90
24374;DHT22;12498;50.880;12.096;2023-10-08T07:03:24;11.90;99.90
24374;DHT22;12498;50.880;12.096;2023-10-08T07:05:51;12.10;99.90
24374;DHT22;12498;50.880;12.096;2023-10-08T07:08:23;11.80;99.90
24374;DHT22;12498;50.880;12.096;2023-10-08T07:10:50;11.90;99.90
24374;DHT22;12498;50.880;12.096;2023-10-08T07:13:16;11.90;99.90
24374;DHT22;12498;50.880;12.096;2023-10-08T07:15:45;12.40;99.90
24374;DHT22;12498;50.880;12.096;2023-10-08T07:18:11;11.90;99.90
24374;DHT22;12498;50.880;12.096;2023-10-08T07:20:45;12.40;99.90
24374;DHT22;12498;50.880;12.096;2023-10-08T07:23:11;11.90;99.90
24374;DHT22;12498;50.880;12.096;2023-10-08T07:25:53;12.10;99.90
24374;DHT22;12498;50.880;12.096;2023-10-08T07:28:22;11.90;99.90
24374;DHT22;12498;50.880;12.096;2023-10-08T07:30:51;12.10;99.90
24374;DHT22;12498;50.880;12.096;2023-10-08T07:33:17;11.90;99.90
24374;DHT22;12498;50.880;12.096;2023-10-08T07:35:46;12.50;99.90
24374;DHT22;12498;50.880;12.096;2023-10-08T07:38:32;11.90;99.90
24374;DHT22;12498;50.880;12.096;2023-10-08T07:41:00;12.50;99.90
24374;DHT22;12498;50.880;12.096;2023-10-08T07:43:26;11.90;99.90
24374;DHT22;12498;50.880;12.096;2023-10-08T07:45:54;11.90;99.90
24374;DHT22;12498;50.880;12.096;2023-10-08T07:48:19;12.00;99.90
24374;DHT22;12498;50.880;12.096;2023-10-08T07:50:48;12.90;99.90
24374;DHT22;12498;50.880;12.096;2023-10-08T07:53:16;12.00;99.90
24374;DHT22;12498;50.880;12.096;2023-10-08T07:55:45;12.00;99.90
24374;DHT22;12498;50.880;12.096;2023-10-08T07:58:12;11.90;99.90
24374;DHT22;12498;50.880;12.096;2023-10-08T08:00:40;11.90;99.90
24374;DHT22;12498;50.880;12.096;2023-10-08T08:03:06;11.80;99.90
24374;DHT22;12498;50.880;12.096;2023-10-08T08:05:32;11.90;99.90
24374;DHT22;12498;50.880;12.096;2023-10-08T08:07:58;12.70;99.90
24374;DHT22;12498;50.880;12.096;2023-10-08T08:10:31;12.70;99.90
24374;DHT22;12498;50.880;12.096;2023-10-08T08:13:03;11.80;99.90
24374;DHT22;12498;50.880;12.096;2023-10-08T08:15:34;11.60;99.90
24374;DHT22;12498;50.880;12.096;2023-10-08T08:18:01;11.60;99.90
24374;DHT22;12498;50.880;12.096;2023-10-08T08:20:30;11.70;99.90
24374;DHT22;12498;50.880;12.096;2023-10-08T08:23:05;11.80;99.90
24374;DHT22;12498;50.880;12.096;2023-10-08T08:25:37;11.90;99.90
24374;DHT22;12498;50.880;12.096;2023-10-08T08:28:11;11.80;99.90
24374;DHT22;12498;50.880;12.096;2023-10-08T08:30:43;11.60;99.90
24374;DHT22;12498;50.880;12.096;2023-10-08T08:33:14;10.90;99.90
24374;DHT22;12498;50.880;12.096;2023-10-08T08:35:57;11.50;99.90
24374;DHT22;12498;50.880;12.096;2023-10-08T08:38:23;11.60;99.90
24374;DHT22;12498;50.880;12.096;2023-10-08T08:40:49;11.70;99.90
24374;DHT22;12498;50.880;12.096;2023-10-08T08:43:15;11.70;99.90
24374;DHT22;12498;50.880;12.096;2023-10-08T08:45:42;11.80;99.90
24374;DHT22;12498;50.880;12.096;2023-10-08T08:48:08;12.00;99.90
24374;DHT22;12498;50.880;12.096;2023-10-08T08:50:34;12.60;99.90
24374;DHT22;12498;50.880;12.096;2023-10-08T08:53:00;11.70;99.90
24374;DHT22;12498;50.880;12.096;2023-10-08T08:55:25;12.00;99.90
24374;DHT22;12498;50.880;12.096;2023-10-08T08:57:53;11.80;99.90
24374;DHT22;12498;50.880;12.096;2023-10-08T09:00:19;11.70;99.90
24374;DHT22;12498;50.880;12.096;2023-10-08T09:02:45;11.90;99.90
24374;DHT22;12498;50.880;12.096;2023-10-08T09:05:12;11.40;99.90
24374;DHT22;12498;50.880;12.096;2023-10-08T09:10:22;11.20;99.90
24374;DHT22;12498;50.880;12.096;2023-10-08T09:12:53;11.10;99.90
24374;DHT22;12498;50.880;12.096;2023-10-08T09:15:20;11.30;99.90
24374;DHT22;12498;50.880;12.096;2023-10-08T09:17:48;11.50;99.90
24374;DHT22;12498;50.880;12.096;2023-10-08T09:20:13;11.60;99.90
24374;DHT22;12498;50.880;12.096;2023-10-08T09:22:39;11.60;99.90
24374;DHT22;12498;50.880;12.096;2023-10-08T09:25:04;11.60;99.90
24374;DHT22;12498;50.880;12.096;2023-10-08T09:27:32;11.80;99.90
24374;DHT22;12498;50.880;12.096;2023-10-08T09:29:58;12.30;99.90
24374;DHT22;12498;50.880;12.096;2023-10-08T09:32:24;11.90;99.90
24374;DHT22;12498;50.880;12.096;2023-10-08T09:34:51;12.10;99.90
24374;DHT22;12498;50.880;12.096;2023-10-08T09:39:46;12.40;99.90
24374;DHT22;12498;50.880;12.096;2023-10-08T09:42:12;12.20;99.90
24374;DHT22;12498;50.880;12.096;2023-10-08T09:44:39;12.30;99.90
24374;DHT22;12498;50.880;12.096;2023-10-08T09:47:05;12.20;99.90
24374;DHT22;12498;50.880;12.096;2023-10-08T09:49:32;12.30;99.90
24374;DHT22;12498;50.880;12.096;2023-10-08T09:52:04;12.30;99.90
24374;DHT22;12498;50.880;12.096;2023-10-08T09:54:35;12.10;99.90
24374;DHT22;12498;50.880;12.096;2023-10-08T09:57:05;12.20;99.90
24374;DHT22;12498;50.880;12.096;2023-10-08T09:59:32;12.40;99.90
24374;DHT22;12498;50.880;12.096;2023-10-08T10:01:58;12.40;99.90
24374;DHT22;12498;50.880;12.096;2023-10-08T10:04:24;12.60;99.90
24374;DHT22;12498;50.880;12.096;2023-10-08T10:06:50;12.40;99.90
24374;DHT22;12498;50.880;12.096;2023-10-08T10:09:22;12.40;99.90
24374;DHT22;12498;50.880;12.096;2023-10-08T10:11:49;12.40;99.90
24374;DHT22;12498;50.880;12.096;2023-10-08T10:14:15;12.40;99.90
24374;DHT22;12498;50.880;12.096;2023-10-08T10:16:43;12.40;99.90
24374;DHT22;12498;50.880;12.096;2023-10-08T10:19:17;12.50;99.90
24374;DHT22;12498;50.880;12.096;2023-10-08T10:21:45;12.60;99.90
24374;DHT22;12498;50.880;12.096;2023-10-08T10:24:22;12.50;99.90
24374;DHT22;12498;50.880;12.096;2023-10-08T10:26:49;12.70;99.90
24374;DHT22;12498;50.880;12.096;2023-10-08T10:29:18;12.70;99.90
24374;DHT22;12498;50.880;12.096;2023-10-08T10:34:12;12.90;99.90
24374;DHT22;12498;50.880;12.096;2023-10-08T10:36:38;12.90;99.90
24374;DHT22;12498;50.880;12.096;2023-10-08T10:39:05;13.40;99.90
24374;DHT22;12498;50.880;12.096;2023-10-08T10:41:51;13.00;99.90
24374;DHT22;12498;50.880;12.096;2023-10-08T10:44:21;13.00;99.90
24374;DHT22;12498;50.880;12.096;2023-10-08T10:49:16;12.90;99.90
24374;DHT22;12498;50.880;12.096;2023-10-08T10:51:48;12.70;99.90
24374;DHT22;12498;50.880;12.096;2023-10-08T10:54:15;12.70;99.90
24374;DHT22;12498;50.880;12.096;2023-10-08T10:56:48;12.80;99.90
24374;DHT22;12498;50.880;12.096;2023-10-08T10:59:31;13.20;99.90
24374;DHT22;12498;50.880;12.096;2023-10-08T11:02:04;12.70;99.90
24374;DHT22;12498;50.880;12.096;2023-10-08T11:04:56;12.90;99.90
24374;DHT22;12498;50.880;12.096;2023-10-08T11:07:26;12.80;99.90
24374;DHT22;12498;50.880;12.096;2023-10-08T11:09:52;13.00;99.90
24374;DHT22;12498;50.880;12.096;2023-10-08T11:12:20;13.00;99.90
24374;DHT22;12498;50.880;12.096;2023-10-08T11:14:48;13.80;99.90
24374;DHT22;12498;50.880;12.096;2023-10-08T11:17:17;13.30;99.90
24374;DHT22;12498;50.880;12.096;2023-10-08T11:19:43;13.70;99.90
24374;DHT22;12498;50.880;12.096;2023-10-08T11:24:41;13.80;99.90
24374;DHT22;12498;50.880;12.096;2023-10-08T11:47:27;14.10;83.60
24374;DHT22;12498;50.880;12.096;2023-10-08T11:50:01;14.10;1.00
24374;DHT22;12498;50.880;12.096;2023-10-08T11:52:36;13.90;99.90
24374;DHT22;12498;50.880;12.096;2023-10-08T11:55:10;13.90;37.00
24374;DHT22;12498;50.880;12.096;2023-10-08T11:57:40;13.90;1.00
24374;DHT22;12498;50.880;12.096;2023-10-08T12:00:13;13.80;1.00
24374;DHT22;12498;50.880;12.096;2023-10-08T12:02:48;13.90;1.00
24374;DHT22;12498;50.880;12.096;2023-10-08T12:05:13;14.00;1.00
24374;DHT22;12498;50.880;12.096;2023-10-08T12:07:47;14.10;99.90
24374;DHT22;12498;50.880;12.096;2023-10-08T12:10:13;14.10;1.00
24374;DHT22;12498;50.880;12.096;2023-10-08T12:12:42;14.40;1.00
24374;DHT22;12498;50.880;12.096;2023-10-08T12:15:07;14.10;99.90
24374;DHT22;12498;50.880;12.096;2023-10-08T12:17:34;14.10;95.20
24374;DHT22;12498;50.880;12.096;2023-10-08T12:20:07;14.30;99.90
24374;DHT22;12498;50.880;12.096;2023-10-08T12:22:51;14.50;99.90
24374;DHT22;12498;50.880;12.096;2023-10-08T12:25:16;14.40;99.90
24374;DHT22;12498;50.880;12.096;2023-10-08T12:27:42;14.40;1.00
24374;DHT22;12498;50.880;12.096;2023-10-08T12:30:09;14.60;1.00
24374;DHT22;12498;50.880;12.096;2023-10-08T12:32:36;14.50;99.90
24374;DHT22;12498;50.880;12.096;2023-10-08T12:35:05;14.50;99.90
24374;DHT22;12498;50.880;12.096;2023-10-08T12:37:40;14.80;99.90
24374;DHT22;12498;50.880;12.096;2023-10-08T12:40:06;14.90;5.40
24374;DHT22;12498;50.880;12.096;2023-10-08T12:42:37;15.10;1.00
24374;DHT22;12498;50.880;12.096;2023-10-08T12:45:09;15.00;1.00
24374;DHT22;12498;50.880;12.096;2023-10-08T12:47:38;14.90;99.90
24374;DHT22;12498;50.880;12.096;2023-10-08T12:50:04;14.70;99.90
24374;DHT22;12498;50.880;12.096;2023-10-08T12:52:33;14.80;99.90
24374;DHT22;12498;50.880;12.096;2023-10-08T12:55:00;15.10;1.00
24374;DHT22;12498;50.880;12.096;2023-10-08T12:57:30;15.20;1.00
24374;DHT22;12498;50.880;12.096;2023-10-08T12:59:58;15.30;99.90
24374;DHT22;12498;50.880;12.096;2023-10-08T13:02:24;15.30;99.90
24374;DHT22;12498;50.880;12.096;2023-10-08T13:04:56;15.20;99.90
24374;DHT22;12498;50.880;12.096;2023-10-08T13:07:24;15.40;99.90
24374;DHT22;12498;50.880;12.096;2023-10-08T13:09:52;15.50;99.90
24374;DHT22;12498;50.880;12.096;2023-10-08T13:12:18;15.50;99.90
24374;DHT22;12498;50.880;12.096;2023-10-08T13:14:43;15.50;99.90
24374;DHT22;12498;50.880;12.096;2023-10-08T13:17:10;15.60;52.80
24374;DHT22;12498;50.880;12.096;2023-10-08T13:19:36;15.50;53.00
24374;DHT22;12498;50.880;12.096;2023-10-08T13:22:02;15.30;5.90
24374;DHT22;12498;50.880;12.096;2023-10-08T13:24:35;15.50;15.80
24374;DHT22;12498;50.880;12.096;2023-10-08T13:27:06;15.60;9.50
24374;DHT22;12498;50.880;12.096;2023-10-08T13:29:32;15.80;1.00
24374;DHT22;12498;50.880;12.096;2023-10-08T13:31:58;15.90;1.00
24374;DHT22;12498;50.880;12.096;2023-10-08T13:34:23;15.80;1.00
24374;DHT22;12498;50.880;12.096;2023-10-08T13:36:51;15.90;1.00
24374;DHT22;12498;50.880;12.096;2023-10-08T13:39:17;16.20;1.00
24374;DHT22;12498;50.880;12.096;2023-10-08T13:41:46;18.00;99.90
24374;DHT22;12498;50.880;12.096;2023-10-08T13:44:13;19.60;99.90
24374;DHT22;12498;50.880;12.096;2023-10-08T13:46:43;20.30;99.90
24374;DHT22;12498;50.880;12.096;2023-10-08T13:49:14;20.50;88.60
24374;DHT22;12498;50.880;12.096;2023-10-08T13:51:41;20.50;66.30
24374;DHT22;12498;50.880;12.096;2023-10-08T13:54:09;20.00;41.10
24374;DHT22;12498;50.880;12.096;2023-10-08T13:56:36;19.10;35.30
24374;DHT22;12498;50.880;12.096;2023-10-08T13:59:03;18.30;49.40
24374;DHT22;12498;50.880;12.096;2023-10-08T14:01:32;17.70;62.90
24374;DHT22;12498;50.880;12.096;2023-10-08T14:03:59;17.10;83.50
24374;DHT22;12498;50.880;12.096;2023-10-08T14:06:30;17.00;92.80
24374;DHT22;12498;50.880;12.096;2023-10-08T14:08:56;16.70;99.90
24374;DHT22;12498;50.880;12.096;2023-10-08T14:11:22;16.30;99.90
24374;DHT22;12498;50.880;12.096;2023-10-08T14:13:55;16.00;99.90
24374;DHT22;12498;50.880;12.096;2023-10-08T14:16:21;15.80;99.90
24374;DHT22;12498;50.880;12.096;2023-10-08T14:18:54;15.80;99.90
24374;DHT22;12498;50.880;12.096;2023-10-08T14:21:20;15.70;99.90
24374;DHT22;12498;50.880;12.096;2023-10-08T14:23:49;15.50;99.90
24374;DHT22;12498;50.880;12.096;2023-10-08T14:26:17;15.60;99.90
24374;DHT22;12498;50.880;12.096;2023-10-08T14:28:47;15.60;99.90
24374;DHT22;12498;50.880;12.096;2023-10-08T14:31:20;15.40;99.90
24374;DHT22;12498;50.880;12.096;2023-10-08T14:33:48;15.30;99.90
24374;DHT22;12498;50.880;12.096;2023-10-08T14:36:47;15.40;99.90
24374;DHT22;12498;50.880;12.096;2023-10-08T14:39:31;15.50;99.90
24374;DHT22;12498;50.880;12.096;2023-10-08T14:42:16;15.50;99.90
24374;DHT22;12498;50.880;12.096;2023-10-08T14:45:02;15.90;99.90
24374;DHT22;12498;50.880;12.096;2023-10-08T14:47:28;16.00;99.90
24374;DHT22;12498;50.880;12.096;2023-10-08T14:49:54;16.40;99.90
24374;DHT22;12498;50.880;12.096;2023-10-08T14:52:19;16.70;99.90
24374;DHT22;12498;50.880;12.096;2023-10-08T14:54:45;15.90;99.90
24374;DHT22;12498;50.880;12.096;2023-10-08T14:57:14;15.80;99.90
24374;DHT22;12498;50.880;12.096;2023-10-08T14:59:40;16.10;99.90
24374;DHT22;12498;50.880;12.096;2023-10-08T15:02:07;16.40;99.90
24374;DHT22;12498;50.880;12.096;2023-10-08T15:04:32;16.90;99.90
24374;DHT22;12498;50.880;12.096;2023-10-08T15:07:01;17.20;99.90
24374;DHT22;12498;50.880;12.096;2023-10-08T15:09:26;17.30;99.90
24374;DHT22;12498;50.880;12.096;2023-10-08T15:11:53;17.30;99.90
24374;DHT22;12498;50.880;12.096;2023-10-08T15:14:19;16.60;99.90
24374;DHT22;12498;50.880;12.096;2023-10-08T15:16:45;16.10;99.90
24374;DHT22;12498;50.880;12.096;2023-10-08T15:19:12;15.80;99.90
24374;DHT22;12498;50.880;12.096;2023-10-08T15:21:38;15.50;99.90
24374;DHT22;12498;50.880;12.096;2023-10-08T15:24:05;15.10;99.90
24374;DHT22;12498;50.880;12.096;2023-10-08T15:26:36;15.10;99.90
24374;DHT22;12498;50.880;12.096;2023-10-08T15:29:01;14.80;99.90
24374;DHT22;12498;50.880;12.096;2023-10-08T15:31:28;14.60;99.90
24374;DHT22;12498;50.880;12.096;2023-10-08T15:33:53;14.50;99.90
24374;DHT22;12498;50.880;12.096;2023-10-08T15:36:19;14.40;99.90
24374;DHT22;12498;50.880;12.096;2023-10-08T15:38:44;14.30;1.00
24374;DHT22;12498;50.880;12.096;2023-10-08T15:41:10;14.30;1.00
24374;DHT22;12498;50.880;12.096;2023-10-08T15:46:02;14.20;99.90
24374;DHT22;12498;50.880;12.096;2023-10-08T15:48:30;14.10;1.00
24374;DHT22;12498;50.880;12.096;2023-10-08T15:50:56;14.10;1.00
24374;DHT22;12498;50.880;12.096;2023-10-08T15:53:22;14.00;37.50
24374;DHT22;12498;50.880;12.096;2023-10-08T15:55:47;14.00;99.90
24374;DHT22;12498;50.880;12.096;2023-10-08T15:58:13;14.00;1.00
24374;DHT22;12498;50.880;12.096;2023-10-08T16:00:38;14.00;99.90
24374;DHT22;12498;50.880;12.096;2023-10-08T16:03:04;13.70;99.90
24374;DHT22;12498;50.880;12.096;2023-10-08T16:05:30;13.70;99.90
24374;DHT22;12498;50.880;12.096;2023-10-08T16:07:56;13.70;99.90
24374;DHT22;12498;50.880;12.096;2023-10-08T16:10:24;14.50;99.90
24374;DHT22;12498;50.880;12.096;2023-10-08T16:12:50;13.60;99.90
24374;DHT22;12498;50.880;12.096;2023-10-08T16:15:15;13.60;99.90
24374;DHT22;12498;50.880;12.096;2023-10-08T16:17:41;13.60;99.90
24374;DHT22;12498;50.880;12.096;2023-10-08T16:20:09;13.80;99.90
24374;DHT22;12498;50.880;12.096;2023-10-08T16:22:39;13.60;99.90
24374;DHT22;12498;50.880;12.096;2023-10-08T16:25:05;13.50;1.00
24374;DHT22;12498;50.880;12.096;2023-10-08T16:27:31;13.50;99.90
24374;DHT22;12498;50.880;12.096;2023-10-08T16:29:59;13.40;99.90
24374;DHT22;12498;50.880;12.096;2023-10-08T16:32:25;13.40;99.90
24374;DHT22;12498;50.880;12.096;2023-10-08T16:34:51;13.40;99.90
24374;DHT22;12498;50.880;12.096;2023-10-08T16:37:18;13.30;99.90
24374;DHT22;12498;50.880;12.096;2023-10-08T16:39:47;13.30;99.90
24374;DHT22;12498;50.880;12.096;2023-10-08T16:42:12;13.20;99.90
24374;DHT22;12498;50.880;12.096;2023-10-08T16:44:38;13.10;21.20
24374;DHT22;12498;50.880;12.096;2023-10-08T16:47:03;12.70;99.90
24374;DHT22;12498;50.880;12.096;2023-10-08T16:49:29;13.00;99.90
24374;DHT22;12498;50.880;12.096;2023-10-08T16:51:55;13.00;99.90
24374;DHT22;12498;50.880;12.096;2023-10-08T16:54:21;12.90;99.90
24374;DHT22;12498;50.880;12.096;2023-10-08T16:56:46;13.70;99.90
24374;DHT22;12498;50.880;12.096;2023-10-08T16:59:12;13.80;1.00
24374;DHT22;12498;50.880;12.096;2023-10-08T17:01:41;12.60;1.00
24374;DHT22;12498;50.880;12.096;2023-10-08T17:04:06;13.80;99.90
24374;DHT22;12498;50.880;12.096;2023-10-08T17:06:32;12.80;99.90